sensor_id;sensor_type;location;lat;lon;timestamp;P1;durP1;ratioP1;P2;durP2;ratioP2
3873;SDS011;1952;50.872;6.692;2023-05-10T00:33:03;12.67;;;11.37;;
3873;SDS011;1952;50.872;6.692;2023-05-10T00:35:31;11.83;;;10.37;;
3873;SDS011;1952;50.872;6.692;2023-05-10T00:38:00;11.50;;;10.30;;
3873;SDS011;1952;50.872;6.692;2023-05-10T00:40:28;14.23;;;11.77;;
3873;SDS011;1952;50.872;6.692;2023-05-10T00:42:57;11.47;;;10.27;;
3873;SDS011;1952;50.872;6.692;2023-05-10T00:45:25;14.17;;;11.57;;
3873;SDS011;1952;50.872;6.692;2023-05-10T00:47:53;11.27;;;9.67;;
3873;SDS011;1952;50.872;6.692;2023-05-10T00:50:23;12.27;;;11.00;;
3873;SDS011;1952;50.872;6.692;2023-05-10T00:52:52;11.20;;;9.17;;
3873;SDS011;1952;50.872;6.692;2023-05-10T00:55:20;13.30;;;10.83;;
3873;SDS011;1952;50.872;6.692;2023-05-10T00:57:49;10.67;;;9.50;;
3873;SDS011;1952;50.872;6.692;2023-05-10T01:00:17;10.17;;;9.07;;
3873;SDS011;1952;50.872;6.692;2023-05-10T01:02:46;15.30;;;12.17;;
3873;SDS011;1952;50.872;6.692;2023-05-10T01:05:15;10.97;;;9.53;;
3873;SDS011;1952;50.872;6.692;2023-05-10T01:07:45;11.40;;;9.97;;
3873;SDS011;1952;50.872;6.692;2023-05-10T01:10:14;13.10;;;11.50;;
3873;SDS011;1952;50.872;6.692;2023-05-10T01:12:43;10.77;;;9.27;;
3873;SDS011;1952;50.872;6.692;2023-05-10T01:15:12;12.33;;;10.10;;
3873;SDS011;1952;50.872;6.692;2023-05-10T01:17:42;12.30;;;8.80;;
3873;SDS011;1952;50.872;6.692;2023-05-10T01:20:11;8.23;;;7.43;;
3873;SDS011;1952;50.872;6.692;2023-05-10T01:22:49;9.37;;;8.40;;
3873;SDS011;1952;50.872;6.692;2023-05-10T01:25:23;7.60;;;6.87;;
3873;SDS011;1952;50.872;6.692;2023-05-10T01:30:50;7.00;;;5.80;;
3873;SDS011;1952;50.872;6.692;2023-05-10T01:33:24;6.27;;;5.70;;
3873;SDS011;1952;50.872;6.692;2023-05-10T01:35:55;7.90;;;6.30;;
3873;SDS011;1952;50.872;6.692;2023-05-10T01:38:27;6.03;;;5.43;;
3873;SDS011;1952;50.872;6.692;2023-05-10T01:41:00;6.70;;;5.43;;
3873;SDS011;1952;50.872;6.692;2023-05-10T01:43:37;6.50;;;5.90;;
3873;SDS011;1952;50.872;6.692;2023-05-10T01:46:07;8.10;;;6.53;;
3873;SDS011;1952;50.872;6.692;2023-05-10T01:48:40;7.87;;;6.47;;
3873;SDS011;1952;50.872;6.692;2023-05-10T01:51:14;7.43;;;6.73;;
3873;SDS011;1952;50.872;6.692;2023-05-10T01:53:44;9.27;;;6.60;;
3873;SDS011;1952;50.872;6.692;2023-05-10T01:56:14;6.57;;;5.57;;
3873;SDS011;1952;50.872;6.692;2023-05-10T01:58:43;10.30;;;8.03;;
3873;SDS011;1952;50.872;6.692;2023-05-10T02:01:12;10.10;;;7.80;;
3873;SDS011;1952;50.872;6.692;2023-05-10T02:03:43;7.80;;;7.00;;
3873;SDS011;1952;50.872;6.692;2023-05-10T02:06:12;7.40;;;6.10;;
3873;SDS011;1952;50.872;6.692;2023-05-10T02:08:43;8.43;;;7.53;;
3873;SDS011;1952;50.872;6.692;2023-05-10T02:11:13;7.80;;;6.77;;
3873;SDS011;1952;50.872;6.692;2023-05-10T02:13:41;8.10;;;6.93;;
3873;SDS011;1952;50.872;6.692;2023-05-10T02:16:11;7.57;;;6.80;;
3873;SDS011;1952;50.872;6.692;2023-05-10T02:18:40;8.47;;;7.10;;
3873;SDS011;1952;50.872;6.692;2023-05-10T02:21:10;7.77;;;6.97;;
3873;SDS011;1952;50.872;6.692;2023-05-10T02:23:38;7.00;;;5.83;;
3873;SDS011;1952;50.872;6.692;2023-05-10T02:26:07;10.20;;;5.47;;
3873;SDS011;1952;50.872;6.692;2023-05-10T02:28:36;6.97;;;5.10;;
3873;SDS011;1952;50.872;6.692;2023-05-10T02:31:05;6.50;;;5.63;;
3873;SDS011;1952;50.872;6.692;2023-05-10T02:33:35;6.17;;;5.63;;
3873;SDS011;1952;50.872;6.692;2023-05-10T02:36:04;5.63;;;5.07;;
3873;SDS011;1952;50.872;6.692;2023-05-10T02:38:34;6.17;;;5.40;;
3873;SDS011;1952;50.872;6.692;2023-05-10T02:41:03;5.70;;;5.07;;
3873;SDS011;1952;50.872;6.692;2023-05-10T02:43:33;6.10;;;5.50;;
3873;SDS011;1952;50.872;6.692;2023-05-10T02:46:01;5.70;;;5.10;;
3873;SDS011;1952;50.872;6.692;2023-05-10T02:48:30;8.30;;;6.60;;
3873;SDS011;1952;50.872;6.692;2023-05-10T02:51:00;6.33;;;5.17;;
3873;SDS011;1952;50.872;6.692;2023-05-10T02:53:32;5.37;;;4.87;;
3873;SDS011;1952;50.872;6.692;2023-05-10T02:56:05;6.20;;;5.60;;
3873;SDS011;1952;50.872;6.692;2023-05-10T02:58:39;7.13;;;6.43;;
3873;SDS011;1952;50.872;6.692;2023-05-10T03:01:07;6.70;;;5.63;;
3873;SDS011;1952;50.872;6.692;2023-05-10T03:03:35;9.20;;;6.57;;
3873;SDS011;1952;50.872;6.692;2023-05-10T03:06:04;8.60;;;6.90;;
3873;SDS011;1952;50.872;6.692;2023-05-10T03:08:32;9.00;;;7.37;;
3873;SDS011;1952;50.872;6.692;2023-05-10T03:11:06;9.00;;;6.97;;
3873;SDS011;1952;50.872;6.692;2023-05-10T03:13:39;8.90;;;6.30;;
3873;SDS011;1952;50.872;6.692;2023-05-10T03:16:12;10.07;;;7.63;;
3873;SDS011;1952;50.872;6.692;2023-05-10T03:18:44;9.57;;;7.50;;
3873;SDS011;1952;50.872;6.692;2023-05-10T03:21:15;8.53;;;7.67;;
3873;SDS011;1952;50.872;6.692;2023-05-10T03:23:46;7.83;;;7.03;;
3873;SDS011;1952;50.872;6.692;2023-05-10T03:26:17;10.80;;;8.53;;
3873;SDS011;1952;50.872;6.692;2023-05-10T03:28:46;9.47;;;8.47;;
3873;SDS011;1952;50.872;6.692;2023-05-10T03:31:16;8.50;;;7.70;;
3873;SDS011;1952;50.872;6.692;2023-05-10T03:33:45;12.93;;;11.53;;
3873;SDS011;1952;50.872;6.692;2023-05-10T03:36:14;14.20;;;11.50;;
3873;SDS011;1952;50.872;6.692;2023-05-10T03:38:42;12.97;;;10.47;;
3873;SDS011;1952;50.872;6.692;2023-05-10T03:41:10;12.20;;;11.00;;
3873;SDS011;1952;50.872;6.692;2023-05-10T03:43:40;13.20;;;11.80;;
3873;SDS011;1952;50.872;6.692;2023-05-10T03:46:08;10.33;;;9.27;;
3873;SDS011;1952;50.872;6.692;2023-05-10T03:48:36;10.00;;;8.97;;
3873;SDS011;1952;50.872;6.692;2023-05-10T03:51:05;14.20;;;10.47;;
3873;SDS011;1952;50.872;6.692;2023-05-10T03:53:33;16.90;;;11.33;;
3873;SDS011;1952;50.872;6.692;2023-05-10T03:56:01;13.13;;;10.03;;
3873;SDS011;1952;50.872;6.692;2023-05-10T03:58:30;12.30;;;9.70;;
3873;SDS011;1952;50.872;6.692;2023-05-10T04:00:59;12.40;;;10.67;;
3873;SDS011;1952;50.872;6.692;2023-05-10T04:03:27;12.93;;;10.30;;
3873;SDS011;1952;50.872;6.692;2023-05-10T04:05:59;10.13;;;9.03;;
3873;SDS011;1952;50.872;6.692;2023-05-10T04:08:28;10.93;;;8.90;;
3873;SDS011;1952;50.872;6.692;2023-05-10T04:11:04;13.10;;;9.20;;
3873;SDS011;1952;50.872;6.692;2023-05-10T04:13:32;16.00;;;10.53;;
3873;SDS011;1952;50.872;6.692;2023-05-10T04:16:02;12.03;;;10.83;;
3873;SDS011;1952;50.872;6.692;2023-05-10T04:18:30;10.70;;;9.03;;
3873;SDS011;1952;50.872;6.692;2023-05-10T04:20:59;10.60;;;9.50;;
3873;SDS011;1952;50.872;6.692;2023-05-10T04:23:27;9.30;;;8.43;;
3873;SDS011;1952;50.872;6.692;2023-05-10T04:25:59;10.57;;;9.50;;
3873;SDS011;1952;50.872;6.692;2023-05-10T04:28:27;12.20;;;10.90;;
3873;SDS011;1952;50.872;6.692;2023-05-10T04:31:00;11.60;;;9.03;;
3873;SDS011;1952;50.872;6.692;2023-05-10T04:33:30;13.87;;;11.43;;
3873;SDS011;1952;50.872;6.692;2023-05-10T04:35:58;11.33;;;10.10;;
3873;SDS011;1952;50.872;6.692;2023-05-10T04:38:26;16.27;;;9.53;;
3873;SDS011;1952;50.872;6.692;2023-05-10T04:41:03;13.30;;;10.50;;
3873;SDS011;1952;50.872;6.692;2023-05-10T04:43:31;13.30;;;11.17;;
3873;SDS011;1952;50.872;6.692;2023-05-10T04:45:59;10.77;;;9.60;;
3873;SDS011;1952;50.872;6.692;2023-05-10T04:48:29;16.30;;;12.37;;
3873;SDS011;1952;50.872;6.692;2023-05-10T04:50:57;14.03;;;10.33;;
3873;SDS011;1952;50.872;6.692;2023-05-10T04:53:25;15.73;;;11.13;;
3873;SDS011;1952;50.872;6.692;2023-05-10T04:55:54;11.00;;;9.87;;
3873;SDS011;1952;50.872;6.692;2023-05-10T04:58:22;16.33;;;10.50;;
3873;SDS011;1952;50.872;6.692;2023-05-10T05:00:50;10.53;;;9.00;;
3873;SDS011;1952;50.872;6.692;2023-05-10T05:03:19;13.40;;;10.53;;
3873;SDS011;1952;50.872;6.692;2023-05-10T05:05:49;15.00;;;11.07;;
3873;SDS011;1952;50.872;6.692;2023-05-10T05:08:18;18.23;;;11.43;;
3873;SDS011;1952;50.872;6.692;2023-05-10T05:10:47;20.20;;;12.30;;
3873;SDS011;1952;50.872;6.692;2023-05-10T05:13:16;14.53;;;11.60;;
3873;SDS011;1952;50.872;6.692;2023-05-10T05:15:45;11.50;;;9.27;;
3873;SDS011;1952;50.872;6.692;2023-05-10T05:18:13;18.23;;;12.63;;
3873;SDS011;1952;50.872;6.692;2023-05-10T05:20:42;17.50;;;15.30;;
3873;SDS011;1952;50.872;6.692;2023-05-10T05:23:12;13.87;;;11.70;;
3873;SDS011;1952;50.872;6.692;2023-05-10T05:25:40;12.67;;;10.07;;
3873;SDS011;1952;50.872;6.692;2023-05-10T05:28:09;16.50;;;13.13;;
3873;SDS011;1952;50.872;6.692;2023-05-10T05:30:37;14.00;;;12.60;;
3873;SDS011;1952;50.872;6.692;2023-05-10T05:33:06;13.47;;;11.80;;
3873;SDS011;1952;50.872;6.692;2023-05-10T05:35:34;15.13;;;12.57;;
3873;SDS011;1952;50.872;6.692;2023-05-10T05:38:02;15.13;;;13.30;;
3873;SDS011;1952;50.872;6.692;2023-05-10T05:40:33;17.03;;;13.73;;
3873;SDS011;1952;50.872;6.692;2023-05-10T05:43:02;16.80;;;12.60;;
3873;SDS011;1952;50.872;6.692;2023-05-10T05:45:30;18.10;;;14.67;;
3873;SDS011;1952;50.872;6.692;2023-05-10T05:47:59;14.83;;;12.57;;
3873;SDS011;1952;50.872;6.692;2023-05-10T05:50:27;18.33;;;12.37;;
3873;SDS011;1952;50.872;6.692;2023-05-10T05:53:00;13.97;;;11.97;;
3873;SDS011;1952;50.872;6.692;2023-05-10T06:35:52;14.20;;;10.87;;
3873;SDS011;1952;50.872;6.692;2023-05-10T06:38:20;12.97;;;9.77;;
3873;SDS011;1952;50.872;6.692;2023-05-10T06:40:49;12.43;;;10.60;;
3873;SDS011;1952;50.872;6.692;2023-05-10T06:43:21;16.50;;;13.67;;
3873;SDS011;1952;50.872;6.692;2023-05-10T06:45:51;14.60;;;10.63;;
3873;SDS011;1952;50.872;6.692;2023-05-10T06:48:19;11.50;;;10.30;;
3873;SDS011;1952;50.872;6.692;2023-05-10T06:50:48;15.07;;;10.93;;
3873;SDS011;1952;50.872;6.692;2023-05-10T06:53:19;13.17;;;10.70;;
3873;SDS011;1952;50.872;6.692;2023-05-10T06:55:48;15.47;;;10.83;;
3873;SDS011;1952;50.872;6.692;2023-05-10T06:58:18;12.17;;;9.50;;
3873;SDS011;1952;50.872;6.692;2023-05-10T07:00:48;10.47;;;8.37;;
3873;SDS011;1952;50.872;6.692;2023-05-10T07:03:21;16.83;;;9.60;;
3873;SDS011;1952;50.872;6.692;2023-05-10T07:05:50;14.63;;;10.23;;
3873;SDS011;1952;50.872;6.692;2023-05-10T07:08:20;11.20;;;7.87;;
3873;SDS011;1952;50.872;6.692;2023-05-10T07:10:49;13.30;;;9.00;;
3873;SDS011;1952;50.872;6.692;2023-05-10T07:13:17;10.83;;;8.90;;
3873;SDS011;1952;50.872;6.692;2023-05-10T07:15:46;14.67;;;8.33;;
3873;SDS011;1952;50.872;6.692;2023-05-10T07:18:21;11.07;;;7.70;;
3873;SDS011;1952;50.872;6.692;2023-05-10T07:20:52;10.70;;;8.23;;
3873;SDS011;1952;50.872;6.692;2023-05-10T07:23:24;16.23;;;9.20;;
3873;SDS011;1952;50.872;6.692;2023-05-10T07:25:56;11.03;;;7.83;;
3873;SDS011;1952;50.872;6.692;2023-05-10T07:28:26;9.57;;;8.03;;
3873;SDS011;1952;50.872;6.692;2023-05-10T07:30:58;9.80;;;8.67;;
3873;SDS011;1952;50.872;6.692;2023-05-10T07:33:27;10.53;;;8.53;;
3873;SDS011;1952;50.872;6.692;2023-05-10T07:35:57;13.20;;;8.47;;
3873;SDS011;1952;50.872;6.692;2023-05-10T07:38:28;7.67;;;6.97;;
3873;SDS011;1952;50.872;6.692;2023-05-10T07:40:57;8.30;;;7.00;;
3873;SDS011;1952;50.872;6.692;2023-05-10T07:43:27;9.10;;;7.40;;
3873;SDS011;1952;50.872;6.692;2023-05-10T07:45:57;8.67;;;6.67;;
3873;SDS011;1952;50.872;6.692;2023-05-10T07:48:29;9.23;;;7.63;;
3873;SDS011;1952;50.872;6.692;2023-05-10T07:51:00;8.40;;;6.47;;
3873;SDS011;1952;50.872;6.692;2023-05-10T07:53:30;6.77;;;5.73;;
3873;SDS011;1952;50.872;6.692;2023-05-10T07:56:19;5.93;;;5.33;;
3873;SDS011;1952;50.872;6.692;2023-05-10T07:58:48;5.87;;;4.83;;
3873;SDS011;1952;50.872;6.692;2023-05-10T08:01:17;4.20;;;3.50;;
3873;SDS011;1952;50.872;6.692;2023-05-10T08:03:54;3.90;;;3.60;;
3873;SDS011;1952;50.872;6.692;2023-05-10T08:06:23;4.30;;;3.00;;
3873;SDS011;1952;50.872;6.692;2023-05-10T08:08:55;3.40;;;3.20;;
3873;SDS011;1952;50.872;6.692;2023-05-10T08:11:24;4.23;;;3.50;;
3873;SDS011;1952;50.872;6.692;2023-05-10T08:13:54;5.70;;;4.70;;
3873;SDS011;1952;50.872;6.692;2023-05-10T08:16:23;3.57;;;3.27;;
3873;SDS011;1952;50.872;6.692;2023-05-10T08:18:52;4.57;;;3.70;;
3873;SDS011;1952;50.872;6.692;2023-05-10T08:21:22;3.33;;;3.13;;
3873;SDS011;1952;50.872;6.692;2023-05-10T08:23:57;3.83;;;3.53;;
3873;SDS011;1952;50.872;6.692;2023-05-10T08:26:27;4.23;;;2.87;;
3873;SDS011;1952;50.872;6.692;2023-05-10T08:28:55;2.90;;;2.70;;
3873;SDS011;1952;50.872;6.692;2023-05-10T08:31:24;3.33;;;3.03;;
3873;SDS011;1952;50.872;6.692;2023-05-10T08:33:53;3.00;;;2.70;;
3873;SDS011;1952;50.872;6.692;2023-05-10T08:36:22;3.60;;;2.90;;
3873;SDS011;1952;50.872;6.692;2023-05-10T08:38:53;4.67;;;2.73;;
3873;SDS011;1952;50.872;6.692;2023-05-10T08:41:24;3.40;;;3.10;;
3873;SDS011;1952;50.872;6.692;2023-05-10T08:43:54;2.97;;;2.70;;
3873;SDS011;1952;50.872;6.692;2023-05-10T08:46:23;3.20;;;2.90;;
3873;SDS011;1952;50.872;6.692;2023-05-10T08:49:06;4.13;;;3.53;;
3873;SDS011;1952;50.872;6.692;2023-05-10T08:51:36;3.70;;;3.40;;
3873;SDS011;1952;50.872;6.692;2023-05-10T08:54:11;4.60;;;4.17;;
3873;SDS011;1952;50.872;6.692;2023-05-10T08:56:48;6.87;;;6.17;;
3873;SDS011;1952;50.872;6.692;2023-05-10T08:59:19;8.50;;;6.70;;
3873;SDS011;1952;50.872;6.692;2023-05-10T09:01:50;8.63;;;6.47;;
3873;SDS011;1952;50.872;6.692;2023-05-10T09:04:20;9.40;;;7.30;;
3873;SDS011;1952;50.872;6.692;2023-05-10T09:06:51;10.70;;;8.13;;
3873;SDS011;1952;50.872;6.692;2023-05-10T09:12:25;13.27;;;9.00;;
3873;SDS011;1952;50.872;6.692;2023-05-10T09:14:55;13.77;;;9.70;;
3873;SDS011;1952;50.872;6.692;2023-05-10T09:17:24;11.80;;;8.27;;
3873;SDS011;1952;50.872;6.692;2023-05-10T09:19:58;9.53;;;7.90;;
3873;SDS011;1952;50.872;6.692;2023-05-10T09:22:42;13.23;;;9.00;;
3873;SDS011;1952;50.872;6.692;2023-05-10T09:25:16;12.53;;;9.93;;
3873;SDS011;1952;50.872;6.692;2023-05-10T09:27:47;13.90;;;10.07;;
3873;SDS011;1952;50.872;6.692;2023-05-10T09:30:17;13.27;;;10.27;;
3873;SDS011;1952;50.872;6.692;2023-05-10T09:32:46;15.27;;;10.30;;
3873;SDS011;1952;50.872;6.692;2023-05-10T09:35:17;10.43;;;9.07;;
3873;SDS011;1952;50.872;6.692;2023-05-10T09:37:48;15.00;;;10.20;;
3873;SDS011;1952;50.872;6.692;2023-05-10T09:40:17;9.90;;;8.07;;
3873;SDS011;1952;50.872;6.692;2023-05-10T09:51:20;12.33;;;9.80;;
3873;SDS011;1952;50.872;6.692;2023-05-10T09:54:08;14.53;;;10.00;;
3873;SDS011;1952;50.872;6.692;2023-05-10T09:56:38;14.27;;;11.27;;
3873;SDS011;1952;50.872;6.692;2023-05-10T09:59:09;14.63;;;9.97;;
3873;SDS011;1952;50.872;6.692;2023-05-10T10:01:38;14.60;;;9.90;;
3873;SDS011;1952;50.872;6.692;2023-05-10T10:04:13;11.43;;;9.90;;
3873;SDS011;1952;50.872;6.692;2023-05-10T10:06:44;10.27;;;9.07;;
3873;SDS011;1952;50.872;6.692;2023-05-10T10:09:41;10.73;;;7.90;;
3873;SDS011;1952;50.872;6.692;2023-05-10T10:12:10;9.83;;;7.70;;
3873;SDS011;1952;50.872;6.692;2023-05-10T10:14:40;6.80;;;6.10;;
3873;SDS011;1952;50.872;6.692;2023-05-10T10:17:09;7.70;;;6.60;;
3873;SDS011;1952;50.872;6.692;2023-05-10T10:19:42;5.63;;;5.13;;
3873;SDS011;1952;50.872;6.692;2023-05-10T10:22:15;5.87;;;5.30;;
3873;SDS011;1952;50.872;6.692;2023-05-10T10:24:47;5.80;;;4.80;;
3873;SDS011;1952;50.872;6.692;2023-05-10T10:27:20;7.17;;;4.37;;
3873;SDS011;1952;50.872;6.692;2023-05-10T10:30:09;4.40;;;4.00;;
3873;SDS011;1952;50.872;6.692;2023-05-10T10:32:45;4.00;;;3.43;;
3873;SDS011;1952;50.872;6.692;2023-05-10T10:36:08;4.13;;;3.70;;
3873;SDS011;1952;50.872;6.692;2023-05-10T10:38:57;4.97;;;4.57;;
3873;SDS011;1952;50.872;6.692;2023-05-10T10:41:38;3.90;;;3.60;;
3873;SDS011;1952;50.872;6.692;2023-05-10T10:47:21;5.50;;;5.00;;
3873;SDS011;1952;50.872;6.692;2023-05-10T10:50:04;5.43;;;4.93;;
3873;SDS011;1952;50.872;6.692;2023-05-10T10:52:33;5.00;;;4.50;;
3873;SDS011;1952;50.872;6.692;2023-05-10T10:55:06;4.50;;;4.10;;
3873;SDS011;1952;50.872;6.692;2023-05-10T10:57:48;6.17;;;4.60;;
3873;SDS011;1952;50.872;6.692;2023-05-10T11:00:27;5.10;;;4.30;;
3873;SDS011;1952;50.872;6.692;2023-05-10T11:03:06;5.83;;;4.50;;
3873;SDS011;1952;50.872;6.692;2023-05-10T11:05:36;5.27;;;4.43;;
3873;SDS011;1952;50.872;6.692;2023-05-10T11:08:09;3.90;;;3.60;;
3873;SDS011;1952;50.872;6.692;2023-05-10T11:10:50;4.97;;;3.20;;
3873;SDS011;1952;50.872;6.692;2023-05-10T11:13:40;3.97;;;3.60;;
3873;SDS011;1952;50.872;6.692;2023-05-10T11:16:17;4.00;;;3.50;;
3873;SDS011;1952;50.872;6.692;2023-05-10T11:19:09;3.70;;;3.40;;
3873;SDS011;1952;50.872;6.692;2023-05-10T11:21:48;8.00;;;3.97;;
3873;SDS011;1952;50.872;6.692;2023-05-10T11:24:34;3.83;;;3.53;;
3873;SDS011;1952;50.872;6.692;2023-05-10T11:51:41;4.07;;;3.60;;
3873;SDS011;1952;50.872;6.692;2023-05-10T11:54:12;3.17;;;2.90;;
3873;SDS011;1952;50.872;6.692;2023-05-10T12:46:11;1.70;;;1.60;;
3873;SDS011;1952;50.872;6.692;2023-05-10T12:49:08;4.17;;;2.40;;
3873;SDS011;1952;50.872;6.692;2023-05-10T12:52:08;2.73;;;2.10;;
3873;SDS011;1952;50.872;6.692;2023-05-10T12:55:05;2.70;;;2.50;;
3873;SDS011;1952;50.872;6.692;2023-05-10T12:58:01;3.27;;;2.97;;
3873;SDS011;1952;50.872;6.692;2023-05-10T13:01:04;2.60;;;2.30;;
3873;SDS011;1952;50.872;6.692;2023-05-10T13:03:44;2.60;;;2.40;;
3873;SDS011;1952;50.872;6.692;2023-05-10T13:06:47;4.23;;;2.87;;
3873;SDS011;1952;50.872;6.692;2023-05-10T13:09:18;2.40;;;2.13;;
3873;SDS011;1952;50.872;6.692;2023-05-10T13:11:48;7.43;;;2.40;;
3873;SDS011;1952;50.872;6.692;2023-05-10T13:14:31;2.10;;;2.00;;
3873;SDS011;1952;50.872;6.692;2023-05-10T13:17:40;2.40;;;2.10;;
3873;SDS011;1952;50.872;6.692;2023-05-10T13:20:22;2.20;;;2.10;;
3873;SDS011;1952;50.872;6.692;2023-05-10T13:23:06;2.40;;;2.20;;
3873;SDS011;1952;50.872;6.692;2023-05-10T13:25:35;2.97;;;2.40;;
3873;SDS011;1952;50.872;6.692;2023-05-10T13:28:31;2.53;;;2.37;;
3873;SDS011;1952;50.872;6.692;2023-05-10T13:31:28;2.63;;;2.27;;
3873;SDS011;1952;50.872;6.692;2023-05-10T13:33:58;3.63;;;2.53;;
3873;SDS011;1952;50.872;6.692;2023-05-10T13:36:59;2.47;;;2.37;;
3873;SDS011;1952;50.872;6.692;2023-05-10T13:39:55;2.20;;;2.10;;
3873;SDS011;1952;50.872;6.692;2023-05-10T13:42:38;2.50;;;2.10;;
3873;SDS011;1952;50.872;6.692;2023-05-10T13:45:09;2.47;;;2.27;;
3873;SDS011;1952;50.872;6.692;2023-05-10T13:47:41;2.57;;;2.37;;
3873;SDS011;1952;50.872;6.692;2023-05-10T13:50:10;3.20;;;2.90;;
3873;SDS011;1952;50.872;6.692;2023-05-10T13:59:06;2.83;;;2.63;;
3873;SDS011;1952;50.872;6.692;2023-05-10T14:01:43;2.20;;;2.00;;
3873;SDS011;1952;50.872;6.692;2023-05-10T14:04:27;6.53;;;2.47;;
3873;SDS011;1952;50.872;6.692;2023-05-10T14:07:11;2.60;;;2.40;;
3873;SDS011;1952;50.872;6.692;2023-05-10T14:10:04;2.90;;;2.70;;
3873;SDS011;1952;50.872;6.692;2023-05-10T14:12:34;2.27;;;2.07;;
3873;SDS011;1952;50.872;6.692;2023-05-10T14:21:47;3.37;;;2.57;;
3873;SDS011;1952;50.872;6.692;2023-05-10T14:24:19;2.67;;;2.30;;
3873;SDS011;1952;50.872;6.692;2023-05-10T14:26:49;2.83;;;2.50;;
3873;SDS011;1952;50.872;6.692;2023-05-10T14:29:32;2.37;;;2.17;;
3873;SDS011;1952;50.872;6.692;2023-05-10T14:32:04;2.30;;;2.10;;
3873;SDS011;1952;50.872;6.692;2023-05-10T14:34:37;3.10;;;2.90;;
3873;SDS011;1952;50.872;6.692;2023-05-10T14:37:09;2.70;;;2.50;;
3873;SDS011;1952;50.872;6.692;2023-05-10T14:39:44;3.10;;;2.40;;
3873;SDS011;1952;50.872;6.692;2023-05-10T14:42:33;3.73;;;2.67;;
3873;SDS011;1952;50.872;6.692;2023-05-10T14:45:20;2.60;;;2.40;;
3873;SDS011;1952;50.872;6.692;2023-05-10T14:47:55;2.83;;;2.63;;
3873;SDS011;1952;50.872;6.692;2023-05-10T14:50:38;3.10;;;2.90;;
3873;SDS011;1952;50.872;6.692;2023-05-10T14:53:31;2.97;;;2.77;;
3873;SDS011;1952;50.872;6.692;2023-05-10T14:56:02;2.90;;;2.47;;
3873;SDS011;1952;50.872;6.692;2023-05-10T14:58:42;2.97;;;2.70;;
3873;SDS011;1952;50.872;6.692;2023-05-10T15:01:23;3.10;;;2.80;;
3873;SDS011;1952;50.872;6.692;2023-05-10T15:04:11;2.77;;;2.53;;
3873;SDS011;1952;50.872;6.692;2023-05-10T15:07:07;3.07;;;2.87;;
3873;SDS011;1952;50.872;6.692;2023-05-10T15:09:39;3.17;;;2.87;;
3873;SDS011;1952;50.872;6.692;2023-05-10T15:12:07;2.60;;;2.40;;
3873;SDS011;1952;50.872;6.692;2023-05-10T15:14:36;3.27;;;2.97;;
3873;SDS011;1952;50.872;6.692;2023-05-10T15:17:06;2.50;;;2.30;;
3873;SDS011;1952;50.872;6.692;2023-05-10T15:19:35;4.10;;;2.70;;
3873;SDS011;1952;50.872;6.692;2023-05-10T15:22:04;4.17;;;3.40;;
3873;SDS011;1952;50.872;6.692;2023-05-10T15:24:39;4.17;;;3.20;;
3873;SDS011;1952;50.872;6.692;2023-05-10T15:27:10;3.77;;;2.87;;
3873;SDS011;1952;50.872;6.692;2023-05-10T15:29:39;3.40;;;3.10;;
3873;SDS011;1952;50.872;6.692;2023-05-10T15:32:12;3.53;;;3.23;;
3873;SDS011;1952;50.872;6.692;2023-05-10T15:34:46;3.60;;;3.30;;
3873;SDS011;1952;50.872;6.692;2023-05-10T15:37:39;4.90;;;3.27;;
3873;SDS011;1952;50.872;6.692;2023-05-10T15:40:14;3.43;;;3.13;;
3873;SDS011;1952;50.872;6.692;2023-05-10T15:42:56;2.70;;;2.50;;
3873;SDS011;1952;50.872;6.692;2023-05-10T15:45:32;3.07;;;2.87;;
3873;SDS011;1952;50.872;6.692;2023-05-10T15:48:15;3.33;;;3.03;;
3873;SDS011;1952;50.872;6.692;2023-05-10T15:50:57;4.13;;;3.83;;
3873;SDS011;1952;50.872;6.692;2023-05-10T15:53:27;3.27;;;2.97;;
3873;SDS011;1952;50.872;6.692;2023-05-10T15:59:22;3.13;;;2.93;;
3873;SDS011;1952;50.872;6.692;2023-05-10T16:01:51;3.70;;;3.43;;
3873;SDS011;1952;50.872;6.692;2023-05-10T16:04:19;12.10;;;3.80;;
3873;SDS011;1952;50.872;6.692;2023-05-10T16:07:03;4.30;;;3.70;;
3873;SDS011;1952;50.872;6.692;2023-05-10T16:09:48;5.70;;;3.70;;
3873;SDS011;1952;50.872;6.692;2023-05-10T16:12:21;4.70;;;4.13;;
3873;SDS011;1952;50.872;6.692;2023-05-10T16:14:59;6.10;;;3.60;;
3873;SDS011;1952;50.872;6.692;2023-05-10T16:17:28;4.40;;;4.00;;
3873;SDS011;1952;50.872;6.692;2023-05-10T16:20:01;3.20;;;3.00;;
3873;SDS011;1952;50.872;6.692;2023-05-10T16:22:57;4.00;;;3.27;;
3873;SDS011;1952;50.872;6.692;2023-05-10T16:25:41;3.10;;;2.90;;
3873;SDS011;1952;50.872;6.692;2023-05-10T16:28:24;3.47;;;3.17;;
3873;SDS011;1952;50.872;6.692;2023-05-10T16:31:29;3.10;;;2.87;;
3873;SDS011;1952;50.872;6.692;2023-05-10T16:34:06;3.30;;;2.70;;
3873;SDS011;1952;50.872;6.692;2023-05-10T16:36:39;2.47;;;2.27;;
3873;SDS011;1952;50.872;6.692;2023-05-10T16:39:36;3.20;;;2.50;;
3873;SDS011;1952;50.872;6.692;2023-05-10T16:42:10;2.70;;;2.50;;
3873;SDS011;1952;50.872;6.692;2023-05-10T16:45:00;2.87;;;2.57;;
3873;SDS011;1952;50.872;6.692;2023-05-10T16:50:30;2.53;;;2.33;;
3873;SDS011;1952;50.872;6.692;2023-05-10T16:53:23;2.20;;;2.10;;
3873;SDS011;1952;50.872;6.692;2023-05-10T16:55:54;3.40;;;2.10;;
3873;SDS011;1952;50.872;6.692;2023-05-10T16:58:23;6.43;;;2.20;;
3873;SDS011;1952;50.872;6.692;2023-05-10T17:00:53;2.17;;;2.07;;
3873;SDS011;1952;50.872;6.692;2023-05-10T17:03:30;2.07;;;1.90;;
3873;SDS011;1952;50.872;6.692;2023-05-10T17:06:28;2.40;;;2.20;;
3873;SDS011;1952;50.872;6.692;2023-05-10T17:08:57;2.00;;;1.90;;
3873;SDS011;1952;50.872;6.692;2023-05-10T17:11:26;2.60;;;2.13;;
3873;SDS011;1952;50.872;6.692;2023-05-10T17:13:57;2.47;;;2.27;;
3873;SDS011;1952;50.872;6.692;2023-05-10T17:16:53;2.40;;;2.20;;
3873;SDS011;1952;50.872;6.692;2023-05-10T17:19:25;2.30;;;2.10;;
3873;SDS011;1952;50.872;6.692;2023-05-10T17:21:56;2.90;;;2.57;;
3873;SDS011;1952;50.872;6.692;2023-05-10T17:24:26;2.63;;;2.43;;
3873;SDS011;1952;50.872;6.692;2023-05-10T17:27:13;2.80;;;2.60;;
3873;SDS011;1952;50.872;6.692;2023-05-10T17:29:43;2.70;;;2.50;;
3873;SDS011;1952;50.872;6.692;2023-05-10T17:32:16;2.83;;;2.53;;
3873;SDS011;1952;50.872;6.692;2023-05-10T17:34:44;3.30;;;2.30;;
3873;SDS011;1952;50.872;6.692;2023-05-10T17:40:17;3.30;;;2.70;;
3873;SDS011;1952;50.872;6.692;2023-05-10T17:42:51;2.40;;;2.20;;
3873;SDS011;1952;50.872;6.692;2023-05-10T17:45:48;4.40;;;2.20;;
3873;SDS011;1952;50.872;6.692;2023-05-10T17:48:32;2.97;;;2.30;;
3873;SDS011;1952;50.872;6.692;2023-05-10T17:51:02;4.40;;;2.50;;
3873;SDS011;1952;50.872;6.692;2023-05-10T17:53:32;2.60;;;2.37;;
3873;SDS011;1952;50.872;6.692;2023-05-10T17:56:05;2.47;;;2.27;;
3873;SDS011;1952;50.872;6.692;2023-05-10T18:37:24;2.53;;;2.43;;
3873;SDS011;1952;50.872;6.692;2023-05-10T18:39:53;2.63;;;2.43;;
3873;SDS011;1952;50.872;6.692;2023-05-10T18:42:21;2.43;;;2.23;;
3873;SDS011;1952;50.872;6.692;2023-05-10T18:44:49;2.60;;;2.40;;
3873;SDS011;1952;50.872;6.692;2023-05-10T18:47:18;2.73;;;2.53;;
3873;SDS011;1952;50.872;6.692;2023-05-10T18:49:47;6.10;;;2.87;;
3873;SDS011;1952;50.872;6.692;2023-05-10T18:52:16;2.67;;;2.47;;
3873;SDS011;1952;50.872;6.692;2023-05-10T18:54:45;3.23;;;2.20;;
3873;SDS011;1952;50.872;6.692;2023-05-10T18:57:14;2.87;;;2.60;;
3873;SDS011;1952;50.872;6.692;2023-05-10T18:59:42;2.33;;;2.13;;
3873;SDS011;1952;50.872;6.692;2023-05-10T19:02:10;2.30;;;2.10;;
3873;SDS011;1952;50.872;6.692;2023-05-10T19:04:39;2.17;;;1.97;;
3873;SDS011;1952;50.872;6.692;2023-05-10T19:07:08;2.70;;;2.50;;
3873;SDS011;1952;50.872;6.692;2023-05-10T19:09:39;3.43;;;2.03;;
3873;SDS011;1952;50.872;6.692;2023-05-10T19:12:10;2.13;;;1.93;;
3873;SDS011;1952;50.872;6.692;2023-05-10T19:14:38;2.30;;;2.10;;
3873;SDS011;1952;50.872;6.692;2023-05-10T19:17:06;2.30;;;2.10;;
3873;SDS011;1952;50.872;6.692;2023-05-10T19:19:35;4.27;;;2.70;;
3873;SDS011;1952;50.872;6.692;2023-05-10T19:22:04;3.17;;;2.10;;
3873;SDS011;1952;50.872;6.692;2023-05-10T19:24:32;2.80;;;2.20;;
3873;SDS011;1952;50.872;6.692;2023-05-10T19:27:02;3.43;;;1.90;;
3873;SDS011;1952;50.872;6.692;2023-05-10T19:29:32;2.43;;;2.23;;
3873;SDS011;1952;50.872;6.692;2023-05-10T19:32:00;2.53;;;2.33;;